sensor_id;sensor_type;location;lat;lon;timestamp;P1;durP1;ratioP1;P2;durP2;ratioP2
42754;SDS011;28407;51.830;5.684;2024-01-06T00:00:05;8.80;;;6.85;;
42754;SDS011;28407;51.830;5.684;2024-01-06T00:02:12;10.38;;;8.40;;
42754;SDS011;28407;51.830;5.684;2024-01-06T00:04:12;9.60;;;8.32;;
42754;SDS011;28407;51.830;5.684;2024-01-06T00:06:13;8.60;;;7.65;;
42754;SDS011;28407;51.830;5.684;2024-01-06T00:08:14;10.00;;;7.50;;
42754;SDS011;28407;51.830;5.684;2024-01-06T00:10:15;8.98;;;7.75;;
42754;SDS011;28407;51.830;5.684;2024-01-06T00:14:18;9.82;;;7.07;;
42754;SDS011;28407;51.830;5.684;2024-01-06T00:16:19;8.88;;;6.95;;
42754;SDS011;28407;51.830;5.684;2024-01-06T00:18:20;9.68;;;8.13;;
42754;SDS011;28407;51.830;5.684;2024-01-06T00:20:21;8.75;;;6.93;;
42754;SDS011;28407;51.830;5.684;2024-01-06T00:22:22;9.40;;;7.10;;
42754;SDS011;28407;51.830;5.684;2024-01-06T00:24:23;7.82;;;6.50;;
42754;SDS011;28407;51.830;5.684;2024-01-06T00:26:24;8.45;;;6.80;;
42754;SDS011;28407;51.830;5.684;2024-01-06T00:28:24;7.95;;;6.18;;
42754;SDS011;28407;51.830;5.684;2024-01-06T00:30:25;9.60;;;7.57;;
42754;SDS011;28407;51.830;5.684;2024-01-06T00:32:26;9.15;;;7.78;;
42754;SDS011;28407;51.830;5.684;2024-01-06T00:34:26;9.63;;;7.50;;
42754;SDS011;28407;51.830;5.684;2024-01-06T00:36:27;8.77;;;7.28;;
42754;SDS011;28407;51.830;5.684;2024-01-06T00:38:28;9.23;;;6.88;;
42754;SDS011;28407;51.830;5.684;2024-01-06T00:40:28;9.75;;;7.40;;
42754;SDS011;28407;51.830;5.684;2024-01-06T00:42:29;10.38;;;7.65;;
42754;SDS011;28407;51.830;5.684;2024-01-06T00:44:30;9.60;;;7.10;;
42754;SDS011;28407;51.830;5.684;2024-01-06T00:46:31;8.57;;;7.07;;
42754;SDS011;28407;51.830;5.684;2024-01-06T00:48:32;7.78;;;6.60;;
42754;SDS011;28407;51.830;5.684;2024-01-06T00:50:32;9.43;;;7.28;;
42754;SDS011;28407;51.830;5.684;2024-01-06T00:52:33;8.18;;;6.68;;
42754;SDS011;28407;51.830;5.684;2024-01-06T00:54:34;9.00;;;7.03;;
42754;SDS011;28407;51.830;5.684;2024-01-06T00:56:34;8.82;;;7.28;;
42754;SDS011;28407;51.830;5.684;2024-01-06T00:58:35;8.73;;;6.97;;
42754;SDS011;28407;51.830;5.684;2024-01-06T01:00:36;9.52;;;7.43;;
42754;SDS011;28407;51.830;5.684;2024-01-06T01:02:36;10.40;;;8.15;;
42754;SDS011;28407;51.830;5.684;2024-01-06T01:04:38;10.25;;;8.80;;
42754;SDS011;28407;51.830;5.684;2024-01-06T01:06:38;10.10;;;7.47;;
42754;SDS011;28407;51.830;5.684;2024-01-06T01:08:39;9.90;;;7.78;;
42754;SDS011;28407;51.830;5.684;2024-01-06T01:10:40;8.40;;;6.88;;
42754;SDS011;28407;51.830;5.684;2024-01-06T01:12:40;9.88;;;6.97;;
42754;SDS011;28407;51.830;5.684;2024-01-06T01:14:42;10.70;;;8.20;;
42754;SDS011;28407;51.830;5.684;2024-01-06T01:16:43;10.15;;;7.35;;
42754;SDS011;28407;51.830;5.684;2024-01-06T01:18:44;8.27;;;6.45;;
42754;SDS011;28407;51.830;5.684;2024-01-06T01:20:44;9.93;;;7.68;;
42754;SDS011;28407;51.830;5.684;2024-01-06T01:22:46;9.40;;;6.70;;
42754;SDS011;28407;51.830;5.684;2024-01-06T01:24:46;7.90;;;6.85;;
42754;SDS011;28407;51.830;5.684;2024-01-06T01:26:47;9.18;;;7.53;;
42754;SDS011;28407;51.830;5.684;2024-01-06T01:28:48;7.18;;;5.93;;
42754;SDS011;28407;51.830;5.684;2024-01-06T01:30:49;8.10;;;7.13;;
42754;SDS011;28407;51.830;5.684;2024-01-06T01:32:49;6.82;;;5.55;;
42754;SDS011;28407;51.830;5.684;2024-01-06T01:34:50;8.48;;;6.88;;
42754;SDS011;28407;51.830;5.684;2024-01-06T01:36:51;7.72;;;6.55;;
42754;SDS011;28407;51.830;5.684;2024-01-06T01:38:52;7.05;;;5.60;;
42754;SDS011;28407;51.830;5.684;2024-01-06T01:40:52;7.75;;;6.50;;
42754;SDS011;28407;51.830;5.684;2024-01-06T01:42:53;12.38;;;6.95;;
42754;SDS011;28407;51.830;5.684;2024-01-06T01:44:54;7.80;;;6.15;;
42754;SDS011;28407;51.830;5.684;2024-01-06T01:46:55;8.23;;;6.50;;
42754;SDS011;28407;51.830;5.684;2024-01-06T01:48:56;8.48;;;6.30;;
42754;SDS011;28407;51.830;5.684;2024-01-06T01:50:59;6.57;;;5.65;;
42754;SDS011;28407;51.830;5.684;2024-01-06T01:53:03;7.35;;;6.32;;
42754;SDS011;28407;51.830;5.684;2024-01-06T01:55:04;7.30;;;6.55;;
42754;SDS011;28407;51.830;5.684;2024-01-06T01:57:05;7.00;;;6.20;;
42754;SDS011;28407;51.830;5.684;2024-01-06T01:59:09;6.82;;;6.03;;
42754;SDS011;28407;51.830;5.684;2024-01-06T02:01:13;6.88;;;5.90;;
42754;SDS011;28407;51.830;5.684;2024-01-06T02:03:15;7.72;;;6.15;;
42754;SDS011;28407;51.830;5.684;2024-01-06T02:05:19;6.43;;;5.07;;
42754;SDS011;28407;51.830;5.684;2024-01-06T02:07:19;6.13;;;5.53;;
42754;SDS011;28407;51.830;5.684;2024-01-06T02:09:20;6.13;;;5.28;;
42754;SDS011;28407;51.830;5.684;2024-01-06T02:11:23;6.38;;;5.32;;
42754;SDS011;28407;51.830;5.684;2024-01-06T02:13:24;6.20;;;5.47;;
42754;SDS011;28407;51.830;5.684;2024-01-06T02:15:33;6.25;;;5.60;;
42754;SDS011;28407;51.830;5.684;2024-01-06T02:17:34;5.05;;;4.55;;
42754;SDS011;28407;51.830;5.684;2024-01-06T02:19:35;5.75;;;4.95;;
42754;SDS011;28407;51.830;5.684;2024-01-06T02:21:36;6.13;;;5.53;;
42754;SDS011;28407;51.830;5.684;2024-01-06T02:23:42;5.95;;;5.15;;
42754;SDS011;28407;51.830;5.684;2024-01-06T02:25:43;6.47;;;5.25;;
42754;SDS011;28407;51.830;5.684;2024-01-06T02:27:43;5.70;;;4.97;;
42754;SDS011;28407;51.830;5.684;2024-01-06T02:29:44;6.00;;;5.15;;
42754;SDS011;28407;51.830;5.684;2024-01-06T02:31:45;7.30;;;6.25;;
42754;SDS011;28407;51.830;5.684;2024-01-06T02:33:49;5.93;;;5.10;;
42754;SDS011;28407;51.830;5.684;2024-01-06T02:35:50;5.63;;;5.03;;
42754;SDS011;28407;51.830;5.684;2024-01-06T02:37:51;6.30;;;5.33;;
42754;SDS011;28407;51.830;5.684;2024-01-06T02:39:54;6.40;;;4.97;;
42754;SDS011;28407;51.830;5.684;2024-01-06T02:41:55;7.03;;;5.85;;
42754;SDS011;28407;51.830;5.684;2024-01-06T02:43:56;6.55;;;5.20;;
42754;SDS011;28407;51.830;5.684;2024-01-06T02:45:57;6.82;;;6.13;;
42754;SDS011;28407;51.830;5.684;2024-01-06T02:47:57;6.72;;;5.53;;
42754;SDS011;28407;51.830;5.684;2024-01-06T02:49:58;7.57;;;6.25;;
42754;SDS011;28407;51.830;5.684;2024-01-06T02:51:59;9.70;;;6.93;;
42754;SDS011;28407;51.830;5.684;2024-01-06T02:53:59;7.93;;;6.10;;
42754;SDS011;28407;51.830;5.684;2024-01-06T02:56:00;7.40;;;6.07;;
42754;SDS011;28407;51.830;5.684;2024-01-06T02:58:01;8.48;;;7.57;;
42754;SDS011;28407;51.830;5.684;2024-01-06T03:00:02;8.07;;;6.78;;
42754;SDS011;28407;51.830;5.684;2024-01-06T03:02:03;8.05;;;6.47;;
42754;SDS011;28407;51.830;5.684;2024-01-06T03:04:04;8.40;;;6.95;;
42754;SDS011;28407;51.830;5.684;2024-01-06T03:06:05;7.13;;;5.97;;
42754;SDS011;28407;51.830;5.684;2024-01-06T03:08:06;7.68;;;6.18;;
42754;SDS011;28407;51.830;5.684;2024-01-06T03:10:07;8.38;;;6.95;;
42754;SDS011;28407;51.830;5.684;2024-01-06T03:12:08;8.75;;;6.82;;
42754;SDS011;28407;51.830;5.684;2024-01-06T03:14:08;7.30;;;6.30;;
42754;SDS011;28407;51.830;5.684;2024-01-06T03:16:11;7.57;;;6.30;;
42754;SDS011;28407;51.830;5.684;2024-01-06T03:18:11;7.72;;;6.07;;
42754;SDS011;28407;51.830;5.684;2024-01-06T03:20:12;8.25;;;6.30;;
42754;SDS011;28407;51.830;5.684;2024-01-06T03:22:13;7.63;;;6.45;;
42754;SDS011;28407;51.830;5.684;2024-01-06T03:24:13;8.35;;;6.20;;
42754;SDS011;28407;51.830;5.684;2024-01-06T03:26:14;7.35;;;6.00;;
42754;SDS011;28407;51.830;5.684;2024-01-06T03:28:15;8.13;;;7.18;;
42754;SDS011;28407;51.830;5.684;2024-01-06T03:30:15;6.63;;;5.93;;
42754;SDS011;28407;51.830;5.684;2024-01-06T03:32:16;6.68;;;5.60;;
42754;SDS011;28407;51.830;5.684;2024-01-06T03:34:17;7.53;;;6.72;;
42754;SDS011;28407;51.830;5.684;2024-01-06T03:36:17;7.40;;;6.60;;
42754;SDS011;28407;51.830;5.684;2024-01-06T03:38:18;7.53;;;6.63;;
42754;SDS011;28407;51.830;5.684;2024-01-06T03:40:19;6.93;;;5.78;;
42754;SDS011;28407;51.830;5.684;2024-01-06T03:42:19;7.57;;;6.22;;
42754;SDS011;28407;51.830;5.684;2024-01-06T03:44:20;7.47;;;6.68;;
42754;SDS011;28407;51.830;5.684;2024-01-06T03:46:21;7.32;;;6.50;;
42754;SDS011;28407;51.830;5.684;2024-01-06T03:48:22;7.20;;;6.50;;
42754;SDS011;28407;51.830;5.684;2024-01-06T03:50:23;7.72;;;6.18;;
42754;SDS011;28407;51.830;5.684;2024-01-06T03:52:24;8.00;;;6.68;;
42754;SDS011;28407;51.830;5.684;2024-01-06T03:54:25;7.07;;;6.38;;
42754;SDS011;28407;51.830;5.684;2024-01-06T03:56:25;7.18;;;6.43;;
42754;SDS011;28407;51.830;5.684;2024-01-06T03:58:26;8.40;;;7.55;;
42754;SDS011;28407;51.830;5.684;2024-01-06T04:00:27;7.43;;;6.60;;
42754;SDS011;28407;51.830;5.684;2024-01-06T04:02:27;8.25;;;6.90;;
42754;SDS011;28407;51.830;5.684;2024-01-06T04:04:28;8.07;;;7.13;;
42754;SDS011;28407;51.830;5.684;2024-01-06T04:06:29;7.43;;;6.40;;
42754;SDS011;28407;51.830;5.684;2024-01-06T04:08:32;7.40;;;6.20;;
42754;SDS011;28407;51.830;5.684;2024-01-06T04:10:32;6.88;;;5.88;;
42754;SDS011;28407;51.830;5.684;2024-01-06T04:12:33;6.95;;;5.97;;
42754;SDS011;28407;51.830;5.684;2024-01-06T04:14:34;7.05;;;6.35;;
42754;SDS011;28407;51.830;5.684;2024-01-06T04:16:34;7.10;;;6.28;;
42754;SDS011;28407;51.830;5.684;2024-01-06T04:18:35;8.32;;;6.75;;
42754;SDS011;28407;51.830;5.684;2024-01-06T04:20:36;6.57;;;5.82;;
42754;SDS011;28407;51.830;5.684;2024-01-06T04:22:37;7.97;;;5.68;;
42754;SDS011;28407;51.830;5.684;2024-01-06T04:24:37;8.02;;;6.47;;
42754;SDS011;28407;51.830;5.684;2024-01-06T04:26:38;7.45;;;6.70;;
42754;SDS011;28407;51.830;5.684;2024-01-06T04:28:39;7.63;;;6.28;;
42754;SDS011;28407;51.830;5.684;2024-01-06T04:30:40;8.25;;;7.30;;
42754;SDS011;28407;51.830;5.684;2024-01-06T04:32:40;7.78;;;6.15;;
42754;SDS011;28407;51.830;5.684;2024-01-06T04:34:42;7.25;;;6.20;;
42754;SDS011;28407;51.830;5.684;2024-01-06T04:36:42;8.90;;;7.15;;
42754;SDS011;28407;51.830;5.684;2024-01-06T04:38:43;7.30;;;6.47;;
42754;SDS011;28407;51.830;5.684;2024-01-06T04:40:44;7.38;;;6.57;;
42754;SDS011;28407;51.830;5.684;2024-01-06T04:42:44;8.85;;;7.38;;
42754;SDS011;28407;51.830;5.684;2024-01-06T04:44:45;7.63;;;6.82;;
42754;SDS011;28407;51.830;5.684;2024-01-06T04:46:46;7.88;;;7.07;;
42754;SDS011;28407;51.830;5.684;2024-01-06T04:48:49;7.95;;;7.00;;
42754;SDS011;28407;51.830;5.684;2024-01-06T04:50:50;9.65;;;7.57;;
42754;SDS011;28407;51.830;5.684;2024-01-06T04:52:51;8.70;;;7.20;;
42754;SDS011;28407;51.830;5.684;2024-01-06T04:54:52;8.32;;;6.88;;
42754;SDS011;28407;51.830;5.684;2024-01-06T04:56:52;9.57;;;8.55;;
42754;SDS011;28407;51.830;5.684;2024-01-06T04:58:53;9.00;;;7.05;;
42754;SDS011;28407;51.830;5.684;2024-01-06T05:00:54;9.30;;;7.80;;
42754;SDS011;28407;51.830;5.684;2024-01-06T05:02:55;8.88;;;7.10;;
42754;SDS011;28407;51.830;5.684;2024-01-06T05:04:55;9.18;;;7.47;;
42754;SDS011;28407;51.830;5.684;2024-01-06T05:06:56;10.13;;;8.55;;
42754;SDS011;28407;51.830;5.684;2024-01-06T05:08:57;8.77;;;7.25;;
42754;SDS011;28407;51.830;5.684;2024-01-06T05:10:57;9.73;;;8.20;;
42754;SDS011;28407;51.830;5.684;2024-01-06T05:12:59;8.30;;;7.03;;
42754;SDS011;28407;51.830;5.684;2024-01-06T05:14:59;10.10;;;7.78;;
42754;SDS011;28407;51.830;5.684;2024-01-06T05:17:00;9.15;;;7.45;;
42754;SDS011;28407;51.830;5.684;2024-01-06T05:19:01;10.18;;;7.65;;
42754;SDS011;28407;51.830;5.684;2024-01-06T05:21:02;10.73;;;7.90;;
42754;SDS011;28407;51.830;5.684;2024-01-06T05:23:03;10.13;;;7.60;;
42754;SDS011;28407;51.830;5.684;2024-01-06T05:25:04;8.85;;;7.25;;
42754;SDS011;28407;51.830;5.684;2024-01-06T05:27:05;9.82;;;7.97;;
42754;SDS011;28407;51.830;5.684;2024-01-06T05:29:05;9.50;;;8.05;;
42754;SDS011;28407;51.830;5.684;2024-01-06T05:31:06;9.57;;;7.53;;
42754;SDS011;28407;51.830;5.684;2024-01-06T05:33:10;9.13;;;7.28;;
42754;SDS011;28407;51.830;5.684;2024-01-06T05:35:13;9.85;;;7.43;;
42754;SDS011;28407;51.830;5.684;2024-01-06T05:37:13;9.13;;;7.13;;
42754;SDS011;28407;51.830;5.684;2024-01-06T05:39:14;8.50;;;7.18;;
42754;SDS011;28407;51.830;5.684;2024-01-06T05:41:15;9.07;;;6.90;;
42754;SDS011;28407;51.830;5.684;2024-01-06T05:43:15;8.73;;;7.10;;
42754;SDS011;28407;51.830;5.684;2024-01-06T05:45:16;8.32;;;6.63;;
42754;SDS011;28407;51.830;5.684;2024-01-06T05:47:17;8.63;;;6.35;;
42754;SDS011;28407;51.830;5.684;2024-01-06T05:49:17;8.13;;;6.75;;
42754;SDS011;28407;51.830;5.684;2024-01-06T05:51:18;8.52;;;6.40;;
42754;SDS011;28407;51.830;5.684;2024-01-06T05:53:21;7.20;;;5.80;;
42754;SDS011;28407;51.830;5.684;2024-01-06T05:55:22;7.25;;;6.55;;
42754;SDS011;28407;51.830;5.684;2024-01-06T05:57:23;7.70;;;6.28;;
42754;SDS011;28407;51.830;5.684;2024-01-06T05:59:24;7.05;;;6.03;;
42754;SDS011;28407;51.830;5.684;2024-01-06T06:01:24;6.63;;;5.80;;
42754;SDS011;28407;51.830;5.684;2024-01-06T06:03:25;6.18;;;5.55;;
42754;SDS011;28407;51.830;5.684;2024-01-06T06:05:26;6.90;;;6.20;;
42754;SDS011;28407;51.830;5.684;2024-01-06T06:07:26;6.22;;;5.20;;
42754;SDS011;28407;51.830;5.684;2024-01-06T06:09:27;6.93;;;5.38;;
42754;SDS011;28407;51.830;5.684;2024-01-06T06:11:28;5.90;;;5.30;;
42754;SDS011;28407;51.830;5.684;2024-01-06T06:13:29;6.55;;;5.63;;
42754;SDS011;28407;51.830;5.684;2024-01-06T06:15:30;5.75;;;5.15;;
42754;SDS011;28407;51.830;5.684;2024-01-06T06:17:31;6.55;;;5.82;;
42754;SDS011;28407;51.830;5.684;2024-01-06T06:19:31;6.35;;;5.55;;
42754;SDS011;28407;51.830;5.684;2024-01-06T06:21:32;6.53;;;5.90;;
42754;SDS011;28407;51.830;5.684;2024-01-06T06:23:33;6.75;;;5.32;;
42754;SDS011;28407;51.830;5.684;2024-01-06T06:25:34;6.60;;;5.73;;
42754;SDS011;28407;51.830;5.684;2024-01-06T06:27:37;6.45;;;5.55;;
42754;SDS011;28407;51.830;5.684;2024-01-06T06:29:37;6.65;;;5.80;;
42754;SDS011;28407;51.830;5.684;2024-01-06T06:31:38;7.05;;;5.80;;
42754;SDS011;28407;51.830;5.684;2024-01-06T06:33:39;9.15;;;6.85;;
42754;SDS011;28407;51.830;5.684;2024-01-06T06:35:39;6.07;;;5.47;;
42754;SDS011;28407;51.830;5.684;2024-01-06T06:37:40;6.97;;;5.75;;
42754;SDS011;28407;51.830;5.684;2024-01-06T06:39:41;6.38;;;5.68;;
42754;SDS011;28407;51.830;5.684;2024-01-06T06:41:44;6.32;;;5.72;;
42754;SDS011;28407;51.830;5.684;2024-01-06T06:43:45;7.50;;;6.35;;
42754;SDS011;28407;51.830;5.684;2024-01-06T06:45:45;6.32;;;5.72;;
42754;SDS011;28407;51.830;5.684;2024-01-06T06:47:46;6.75;;;5.72;;
42754;SDS011;28407;51.830;5.684;2024-01-06T06:49:47;7.78;;;6.72;;
42754;SDS011;28407;51.830;5.684;2024-01-06T06:51:47;10.05;;;6.20;;
42754;SDS011;28407;51.830;5.684;2024-01-06T06:53:48;6.90;;;6.10;;
42754;SDS011;28407;51.830;5.684;2024-01-06T06:55:49;7.00;;;6.30;;
42754;SDS011;28407;51.830;5.684;2024-01-06T06:57:50;6.88;;;5.32;;
42754;SDS011;28407;51.830;5.684;2024-01-06T06:59:51;7.53;;;6.25;;
42754;SDS011;28407;51.830;5.684;2024-01-06T07:01:51;6.13;;;5.53;;
42754;SDS011;28407;51.830;5.684;2024-01-06T07:03:52;6.50;;;5.90;;
42754;SDS011;28407;51.830;5.684;2024-01-06T07:05:53;6.85;;;6.15;;
42754;SDS011;28407;51.830;5.684;2024-01-06T07:07:55;7.40;;;6.70;;
42754;SDS011;28407;51.830;5.684;2024-01-06T07:09:55;6.00;;;5.40;;
42754;SDS011;28407;51.830;5.684;2024-01-06T07:11:56;6.50;;;5.90;;
42754;SDS011;28407;51.830;5.684;2024-01-06T07:13:57;6.95;;;6.25;;
42754;SDS011;28407;51.830;5.684;2024-01-06T07:16:00;7.10;;;6.40;;
42754;SDS011;28407;51.830;5.684;2024-01-06T07:18:01;7.40;;;5.70;;
42754;SDS011;28407;51.830;5.684;2024-01-06T07:20:01;6.35;;;5.68;;
42754;SDS011;28407;51.830;5.684;2024-01-06T07:22:02;6.93;;;6.22;;
42754;SDS011;28407;51.830;5.684;2024-01-06T07:24:05;9.55;;;6.70;;
42754;SDS011;28407;51.830;5.684;2024-01-06T07:26:06;7.03;;;6.32;;
42754;SDS011;28407;51.830;5.684;2024-01-06T07:28:08;6.18;;;5.57;;
42754;SDS011;28407;51.830;5.684;2024-01-06T07:30:09;6.82;;;5.80;;
42754;SDS011;28407;51.830;5.684;2024-01-06T07:32:12;7.28;;;6.50;;
42754;SDS011;28407;51.830;5.684;2024-01-06T07:34:13;6.47;;;5.88;;
42754;SDS011;28407;51.830;5.684;2024-01-06T07:36:14;6.68;;;6.05;;
42754;SDS011;28407;51.830;5.684;2024-01-06T07:38:15;7.47;;;6.13;;
42754;SDS011;28407;51.830;5.684;2024-01-06T07:40:16;6.57;;;5.88;;
42754;SDS011;28407;51.830;5.684;2024-01-06T07:42:17;6.57;;;5.72;;
42754;SDS011;28407;51.830;5.684;2024-01-06T07:44:18;6.88;;;5.82;;
42754;SDS011;28407;51.830;5.684;2024-01-06T07:46:24;6.47;;;5.78;;
42754;SDS011;28407;51.830;5.684;2024-01-06T07:48:25;6.15;;;5.55;;
42754;SDS011;28407;51.830;5.684;2024-01-06T07:50:26;6.85;;;6.15;;
42754;SDS011;28407;51.830;5.684;2024-01-06T07:52:28;6.95;;;6.25;;
42754;SDS011;28407;51.830;5.684;2024-01-06T07:54:28;6.90;;;5.65;;
42754;SDS011;28407;51.830;5.684;2024-01-06T07:56:30;6.90;;;6.22;;
42754;SDS011;28407;51.830;5.684;2024-01-06T07:58:30;6.82;;;5.53;;
42754;SDS011;28407;51.830;5.684;2024-01-06T08:02:33;7.28;;;5.88;;
42754;SDS011;28407;51.830;5.684;2024-01-06T08:04:34;6.35;;;5.72;;
42754;SDS011;28407;51.830;5.684;2024-01-06T08:06:35;6.38;;;5.45;;
42754;SDS011;28407;51.830;5.684;2024-01-06T08:08:35;6.43;;;5.82;;
42754;SDS011;28407;51.830;5.684;2024-01-06T08:10:36;6.82;;;6.20;;
42754;SDS011;28407;51.830;5.684;2024-01-06T08:12:37;7.05;;;6.35;;
42754;SDS011;28407;51.830;5.684;2024-01-06T08:14:38;5.22;;;4.72;;
42754;SDS011;28407;51.830;5.684;2024-01-06T08:16:38;6.80;;;6.18;;
42754;SDS011;28407;51.830;5.684;2024-01-06T08:18:39;6.32;;;5.55;;
42754;SDS011;28407;51.830;5.684;2024-01-06T08:20:40;6.68;;;5.97;;
42754;SDS011;28407;51.830;5.684;2024-01-06T08:22:40;10.02;;;7.03;;
42754;SDS011;28407;51.830;5.684;2024-01-06T08:24:41;5.88;;;5.03;;
42754;SDS011;28407;51.830;5.684;2024-01-06T08:26:42;7.07;;;5.30;;
42754;SDS011;28407;51.830;5.684;2024-01-06T08:28:43;6.32;;;5.65;;
42754;SDS011;28407;51.830;5.684;2024-01-06T08:30:43;6.95;;;6.28;;
42754;SDS011;28407;51.830;5.684;2024-01-06T08:32:44;6.68;;;5.97;;
42754;SDS011;28407;51.830;5.684;2024-01-06T08:34:45;6.15;;;5.45;;
42754;SDS011;28407;51.830;5.684;2024-01-06T08:36:46;7.32;;;6.28;;
42754;SDS011;28407;51.830;5.684;2024-01-06T08:38:47;6.68;;;5.70;;
42754;SDS011;28407;51.830;5.684;2024-01-06T08:40:47;5.90;;;5.28;;
42754;SDS011;28407;51.830;5.684;2024-01-06T08:42:50;6.55;;;5.53;;
42754;SDS011;28407;51.830;5.684;2024-01-06T08:44:50;6.97;;;5.68;;
42754;SDS011;28407;51.830;5.684;2024-01-06T08:46:51;7.05;;;6.25;;
42754;SDS011;28407;51.830;5.684;2024-01-06T08:48:52;7.60;;;5.78;;
42754;SDS011;28407;51.830;5.684;2024-01-06T08:50:53;7.35;;;5.35;;
42754;SDS011;28407;51.830;5.684;2024-01-06T08:52:53;5.53;;;4.97;;
42754;SDS011;28407;51.830;5.684;2024-01-06T08:54:54;6.38;;;5.78;;
42754;SDS011;28407;51.830;5.684;2024-01-06T08:56:55;6.07;;;5.45;;
42754;SDS011;28407;51.830;5.684;2024-01-06T08:58:57;6.85;;;6.25;;
42754;SDS011;28407;51.830;5.684;2024-01-06T09:00:57;8.48;;;6.30;;
42754;SDS011;28407;51.830;5.684;2024-01-06T09:05:00;5.82;;;5.22;;
42754;SDS011;28407;51.830;5.684;2024-01-06T09:07:01;8.57;;;6.13;;
42754;SDS011;28407;51.830;5.684;2024-01-06T09:09:01;7.40;;;5.47;;
42754;SDS011;28407;51.830;5.684;2024-01-06T09:11:02;7.85;;;6.32;;
42754;SDS011;28407;51.830;5.684;2024-01-06T09:13:03;7.13;;;5.55;;
42754;SDS011;28407;51.830;5.684;2024-01-06T09:15:04;8.07;;;7.27;;
42754;SDS011;28407;51.830;5.684;2024-01-06T09:17:07;7.15;;;6.22;;
42754;SDS011;28407;51.830;5.684;2024-01-06T09:19:07;7.38;;;6.68;;
42754;SDS011;28407;51.830;5.684;2024-01-06T09:21:08;6.90;;;6.20;;
42754;SDS011;28407;51.830;5.684;2024-01-06T09:23:09;6.78;;;5.82;;
42754;SDS011;28407;51.830;5.684;2024-01-06T09:25:10;7.45;;;5.90;;
42754;SDS011;28407;51.830;5.684;2024-01-06T09:27:13;7.82;;;6.35;;
42754;SDS011;28407;51.830;5.684;2024-01-06T09:29:15;6.63;;;5.82;;
42754;SDS011;28407;51.830;5.684;2024-01-06T09:31:16;8.37;;;6.17;;
42754;SDS011;28407;51.830;5.684;2024-01-06T09:33:16;7.50;;;6.20;;
42754;SDS011;28407;51.830;5.684;2024-01-06T09:35:17;7.85;;;7.05;;
42754;SDS011;28407;51.830;5.684;2024-01-06T09:37:18;7.00;;;5.88;;
42754;SDS011;28407;51.830;5.684;2024-01-06T09:39:19;6.47;;;5.53;;
42754;SDS011;28407;51.830;5.684;2024-01-06T09:41:19;7.57;;;6.43;;
42754;SDS011;28407;51.830;5.684;2024-01-06T09:43:21;6.50;;;5.80;;
42754;SDS011;28407;51.830;5.684;2024-01-06T09:45:22;6.63;;;5.75;;
42754;SDS011;28407;51.830;5.684;2024-01-06T09:47:23;8.73;;;6.68;;
42754;SDS011;28407;51.830;5.684;2024-01-06T09:49:28;7.43;;;6.55;;
42754;SDS011;28407;51.830;5.684;2024-01-06T09:51:30;5.93;;;5.30;;
42754;SDS011;28407;51.830;5.684;2024-01-06T09:53:33;6.47;;;5.82;;
42754;SDS011;28407;51.830;5.684;2024-01-06T09:55:36;6.57;;;5.80;;
42754;SDS011;28407;51.830;5.684;2024-01-06T09:57:38;7.40;;;6.50;;
42754;SDS011;28407;51.830;5.684;2024-01-06T09:59:39;7.03;;;6.32;;
42754;SDS011;28407;51.830;5.684;2024-01-06T10:01:42;6.20;;;5.60;;
42754;SDS011;28407;51.830;5.684;2024-01-06T10:03:43;6.35;;;5.70;;
42754;SDS011;28407;51.830;5.684;2024-01-06T10:05:45;6.70;;;5.93;;
42754;SDS011;28407;51.830;5.684;2024-01-06T10:07:46;6.60;;;5.80;;
42754;SDS011;28407;51.830;5.684;2024-01-06T10:09:47;6.65;;;5.95;;
42754;SDS011;28407;51.830;5.684;2024-01-06T10:11:48;5.97;;;5.35;;
42754;SDS011;28407;51.830;5.684;2024-01-06T10:13:49;6.15;;;5.47;;
42754;SDS011;28407;51.830;5.684;2024-01-06T10:15:51;6.65;;;5.95;;
42754;SDS011;28407;51.830;5.684;2024-01-06T10:17:53;8.00;;;6.80;;
42754;SDS011;28407;51.830;5.684;2024-01-06T10:19:54;6.25;;;5.47;;
42754;SDS011;28407;51.830;5.684;2024-01-06T10:24:00;7.18;;;5.40;;
42754;SDS011;28407;51.830;5.684;2024-01-06T10:26:01;6.60;;;5.90;;
42754;SDS011;28407;51.830;5.684;2024-01-06T10:28:02;7.32;;;6.63;;
42754;SDS011;28407;51.830;5.684;2024-01-06T10:30:04;6.97;;;6.28;;
42754;SDS011;28407;51.830;5.684;2024-01-06T10:32:06;6.65;;;6.00;;
42754;SDS011;28407;51.830;5.684;2024-01-06T10:34:07;7.22;;;6.10;;
42754;SDS011;28407;51.830;5.684;2024-01-06T10:36:08;6.43;;;5.82;;
42754;SDS011;28407;51.830;5.684;2024-01-06T10:38:09;7.53;;;6.45;;
42754;SDS011;28407;51.830;5.684;2024-01-06T10:40:12;8.88;;;5.95;;
42754;SDS011;28407;51.830;5.684;2024-01-06T10:42:14;7.30;;;6.60;;
42754;SDS011;28407;51.830;5.684;2024-01-06T10:44:15;7.15;;;6.45;;
42754;SDS011;28407;51.830;5.684;2024-01-06T10:46:20;9.90;;;6.43;;
42754;SDS011;28407;51.830;5.684;2024-01-06T10:48:24;7.10;;;5.95;;
42754;SDS011;28407;51.830;5.684;2024-01-06T10:50:26;7.40;;;5.93;;
42754;SDS011;28407;51.830;5.684;2024-01-06T10:52:29;6.80;;;6.10;;
42754;SDS011;28407;51.830;5.684;2024-01-06T10:54:30;8.63;;;6.45;;
42754;SDS011;28407;51.830;5.684;2024-01-06T10:56:36;6.35;;;5.72;;
42754;SDS011;28407;51.830;5.684;2024-01-06T10:58:40;7.38;;;6.50;;
42754;SDS011;28407;51.830;5.684;2024-01-06T11:00:47;7.25;;;6.45;;
42754;SDS011;28407;51.830;5.684;2024-01-06T11:02:49;7.03;;;6.32;;
42754;SDS011;28407;51.830;5.684;2024-01-06T11:04:53;6.40;;;5.72;;
42754;SDS011;28407;51.830;5.684;2024-01-06T11:06:53;6.70;;;6.10;;
42754;SDS011;28407;51.830;5.684;2024-01-06T11:11:19;6.13;;;5.53;;
42754;SDS011;28407;51.830;5.684;2024-01-06T11:13:23;6.78;;;5.63;;
42754;SDS011;28407;51.830;5.684;2024-01-06T11:17:48;6.25;;;5.70;;
42754;SDS011;28407;51.830;5.684;2024-01-06T11:20:04;6.65;;;6.05;;
42754;SDS011;28407;51.830;5.684;2024-01-06T11:24:19;6.57;;;5.97;;
42754;SDS011;28407;51.830;5.684;2024-01-06T11:26:24;7.25;;;5.95;;
42754;SDS011;28407;51.830;5.684;2024-01-06T11:28:25;6.07;;;5.47;;
42754;SDS011;28407;51.830;5.684;2024-01-06T11:30:26;6.10;;;5.50;;
42754;SDS011;28407;51.830;5.684;2024-01-06T11:34:36;6.18;;;5.57;;
42754;SDS011;28407;51.830;5.684;2024-01-06T11:38:38;6.30;;;5.60;;
42754;SDS011;28407;51.830;5.684;2024-01-06T11:40:39;6.45;;;5.85;;
42754;SDS011;28407;51.830;5.684;2024-01-06T11:42:43;6.63;;;5.70;;
42754;SDS011;28407;51.830;5.684;2024-01-06T11:44:51;6.68;;;5.97;;
42754;SDS011;28407;51.830;5.684;2024-01-06T11:46:52;5.95;;;5.38;;
42754;SDS011;28407;51.830;5.684;2024-01-06T11:48:59;6.50;;;5.38;;
42754;SDS011;28407;51.830;5.684;2024-01-06T11:51:00;6.27;;;5.73;;
42754;SDS011;28407;51.830;5.684;2024-01-06T11:53:03;6.95;;;5.80;;
42754;SDS011;28407;51.830;5.684;2024-01-06T11:55:05;9.00;;;6.30;;
42754;SDS011;28407;51.830;5.684;2024-01-06T11:57:08;6.60;;;6.00;;
42754;SDS011;28407;51.830;5.684;2024-01-06T11:59:09;7.07;;;6.30;;
42754;SDS011;28407;51.830;5.684;2024-01-06T12:01:10;6.38;;;5.78;;
42754;SDS011;28407;51.830;5.684;2024-01-06T12:03:11;8.18;;;6.38;;
42754;SDS011;28407;51.830;5.684;2024-01-06T12:05:16;5.68;;;5.18;;
42754;SDS011;28407;51.830;5.684;2024-01-06T12:07:18;6.90;;;5.88;;
42754;SDS011;28407;51.830;5.684;2024-01-06T12:09:20;6.45;;;5.85;;
42754;SDS011;28407;51.830;5.684;2024-01-06T12:11:20;7.20;;;5.80;;
42754;SDS011;28407;51.830;5.684;2024-01-06T12:13:21;6.68;;;6.07;;
42754;SDS011;28407;51.830;5.684;2024-01-06T12:15:22;6.93;;;6.10;;
42754;SDS011;28407;51.830;5.684;2024-01-06T12:17:23;6.77;;;6.00;;
42754;SDS011;28407;51.830;5.684;2024-01-06T12:19:32;8.20;;;6.95;;
42754;SDS011;28407;51.830;5.684;2024-01-06T12:21:33;7.80;;;6.05;;
42754;SDS011;28407;51.830;5.684;2024-01-06T12:23:37;5.93;;;5.43;;
42754;SDS011;28407;51.830;5.684;2024-01-06T12:25:38;6.97;;;6.07;;
42754;SDS011;28407;51.830;5.684;2024-01-06T12:27:41;6.47;;;5.85;;
42754;SDS011;28407;51.830;5.684;2024-01-06T12:29:43;6.25;;;5.65;;